sensor_id;sensor_type;location;lat;lon;timestamp;P1;durP1;ratioP1;P2;durP2;ratioP2
55320;SDS011;41184;44.272;19.890;2022-08-11T00:01:34;9.70;;;4.82;;
55320;SDS011;41184;44.272;19.890;2022-08-11T00:04:02;9.23;;;5.10;;
55320;SDS011;41184;44.272;19.890;2022-08-11T00:06:34;6.57;;;5.55;;
55320;SDS011;41184;44.272;19.890;2022-08-11T00:09:01;6.68;;;4.72;;
55320;SDS011;41184;44.272;19.890;2022-08-11T00:11:47;4.78;;;4.13;;
55320;SDS011;41184;44.272;19.890;2022-08-11T00:16:40;8.35;;;4.20;;
55320;SDS011;41184;44.272;19.890;2022-08-11T00:19:06;6.13;;;4.88;;
55320;SDS011;41184;44.272;19.890;2022-08-11T00:21:37;7.50;;;5.30;;
55320;SDS011;41184;44.272;19.890;2022-08-11T00:24:04;9.32;;;4.72;;
55320;SDS011;41184;44.272;19.890;2022-08-11T00:26:31;7.55;;;4.68;;
55320;SDS011;41184;44.272;19.890;2022-08-11T00:29:06;6.88;;;5.32;;
55320;SDS011;41184;44.272;19.890;2022-08-11T00:31:33;5.32;;;4.55;;
55320;SDS011;41184;44.272;19.890;2022-08-11T00:34:00;7.53;;;4.72;;
55320;SDS011;41184;44.272;19.890;2022-08-11T00:36:27;9.60;;;5.78;;
55320;SDS011;41184;44.272;19.890;2022-08-11T00:38:54;7.82;;;4.30;;
55320;SDS011;41184;44.272;19.890;2022-08-11T00:49:34;6.55;;;4.63;;
55320;SDS011;41184;44.272;19.890;2022-08-11T00:52:15;7.20;;;4.75;;
55320;SDS011;41184;44.272;19.890;2022-08-11T01:00:16;6.47;;;4.50;;
55320;SDS011;41184;44.272;19.890;2022-08-11T01:07:59;7.70;;;4.80;;
55320;SDS011;41184;44.272;19.890;2022-08-11T01:13:08;7.28;;;4.55;;
55320;SDS011;41184;44.272;19.890;2022-08-11T01:50:16;6.83;;;5.23;;
55320;SDS011;41184;44.272;19.890;2022-08-11T02:00:31;8.45;;;5.18;;
55320;SDS011;41184;44.272;19.890;2022-08-11T02:10:50;7.95;;;5.05;;
55320;SDS011;41184;44.272;19.890;2022-08-11T02:18:54;5.90;;;5.05;;
55320;SDS011;41184;44.272;19.890;2022-08-11T02:22:15;5.30;;;4.80;;
55320;SDS011;41184;44.272;19.890;2022-08-11T02:27:19;5.70;;;4.93;;
55320;SDS011;41184;44.272;19.890;2022-08-11T02:30:03;7.75;;;4.95;;
55320;SDS011;41184;44.272;19.890;2022-08-11T02:32:45;7.32;;;5.05;;
55320;SDS011;41184;44.272;19.890;2022-08-11T02:35:37;7.05;;;5.18;;
55320;SDS011;41184;44.272;19.890;2022-08-11T02:43:10;7.13;;;5.32;;
55320;SDS011;41184;44.272;19.890;2022-08-11T02:48:09;8.63;;;5.10;;
55320;SDS011;41184;44.272;19.890;2022-08-11T02:59:16;5.47;;;4.43;;
55320;SDS011;41184;44.272;19.890;2022-08-11T03:02:10;6.20;;;4.97;;
55320;SDS011;41184;44.272;19.890;2022-08-11T03:07:50;6.20;;;4.50;;
55320;SDS011;41184;44.272;19.890;2022-08-11T03:15:27;5.30;;;4.40;;
55320;SDS011;41184;44.272;19.890;2022-08-11T03:23:52;6.88;;;5.07;;
55320;SDS011;41184;44.272;19.890;2022-08-11T03:26:29;7.70;;;4.70;;
55320;SDS011;41184;44.272;19.890;2022-08-11T03:34:37;8.40;;;4.40;;
55320;SDS011;41184;44.272;19.890;2022-08-11T03:37:05;8.30;;;5.22;;
55320;SDS011;41184;44.272;19.890;2022-08-11T03:53:00;5.88;;;4.55;;
55320;SDS011;41184;44.272;19.890;2022-08-11T04:37:18;6.13;;;4.78;;
55320;SDS011;41184;44.272;19.890;2022-08-11T04:54:39;12.88;;;6.03;;
55320;SDS011;41184;44.272;19.890;2022-08-11T04:57:36;7.32;;;5.28;;
55320;SDS011;41184;44.272;19.890;2022-08-11T05:00:25;7.18;;;5.03;;
55320;SDS011;41184;44.272;19.890;2022-08-11T05:05:51;8.25;;;4.78;;
55320;SDS011;41184;44.272;19.890;2022-08-11T05:08:34;7.63;;;5.15;;
55320;SDS011;41184;44.272;19.890;2022-08-11T05:13:47;9.07;;;4.68;;
55320;SDS011;41184;44.272;19.890;2022-08-11T05:16:53;7.10;;;4.70;;
55320;SDS011;41184;44.272;19.890;2022-08-11T05:19:36;6.20;;;4.40;;
55320;SDS011;41184;44.272;19.890;2022-08-11T05:22:23;6.78;;;5.07;;
55320;SDS011;41184;44.272;19.890;2022-08-11T05:25:14;11.70;;;5.03;;
55320;SDS011;41184;44.272;19.890;2022-08-11T05:28:02;10.88;;;5.75;;
55320;SDS011;41184;44.272;19.890;2022-08-11T05:30:48;9.65;;;5.05;;
55320;SDS011;41184;44.272;19.890;2022-08-11T05:33:35;5.80;;;5.18;;
55320;SDS011;41184;44.272;19.890;2022-08-11T05:36:26;10.98;;;5.63;;
55320;SDS011;41184;44.272;19.890;2022-08-11T05:38:58;9.25;;;6.00;;
55320;SDS011;41184;44.272;19.890;2022-08-11T05:41:44;8.00;;;4.95;;
55320;SDS011;41184;44.272;19.890;2022-08-11T05:44:30;9.10;;;5.38;;
55320;SDS011;41184;44.272;19.890;2022-08-11T05:47:22;8.45;;;5.22;;
55320;SDS011;41184;44.272;19.890;2022-08-11T05:50:11;7.78;;;5.70;;
55320;SDS011;41184;44.272;19.890;2022-08-11T05:52:57;7.47;;;5.55;;
55320;SDS011;41184;44.272;19.890;2022-08-11T05:55:43;8.55;;;5.28;;
55320;SDS011;41184;44.272;19.890;2022-08-11T05:58:35;9.38;;;6.80;;
55320;SDS011;41184;44.272;19.890;2022-08-11T06:01:02;6.57;;;5.57;;
55320;SDS011;41184;44.272;19.890;2022-08-11T06:03:29;14.82;;;5.80;;
55320;SDS011;41184;44.272;19.890;2022-08-11T06:06:17;8.52;;;5.75;;
55320;SDS011;41184;44.272;19.890;2022-08-11T06:08:44;7.00;;;5.43;;
55320;SDS011;41184;44.272;19.890;2022-08-11T06:11:10;11.13;;;5.63;;
55320;SDS011;41184;44.272;19.890;2022-08-11T06:13:42;11.10;;;5.93;;
55320;SDS011;41184;44.272;19.890;2022-08-11T06:16:09;10.82;;;5.80;;
55320;SDS011;41184;44.272;19.890;2022-08-11T06:18:36;8.60;;;5.65;;
55320;SDS011;41184;44.272;19.890;2022-08-11T06:21:07;11.88;;;6.50;;
55320;SDS011;41184;44.272;19.890;2022-08-11T06:25:59;8.13;;;5.60;;
55320;SDS011;41184;44.272;19.890;2022-08-11T06:28:30;9.05;;;6.03;;
55320;SDS011;41184;44.272;19.890;2022-08-11T06:30:57;10.93;;;5.30;;
55320;SDS011;41184;44.272;19.890;2022-08-11T06:33:32;7.50;;;4.93;;
55320;SDS011;41184;44.272;19.890;2022-08-11T06:36:04;7.55;;;5.20;;
55320;SDS011;41184;44.272;19.890;2022-08-11T06:41:17;10.25;;;6.15;;
55320;SDS011;41184;44.272;19.890;2022-08-11T06:46:42;10.38;;;5.63;;
55320;SDS011;41184;44.272;19.890;2022-08-11T06:49:10;11.18;;;5.45;;
55320;SDS011;41184;44.272;19.890;2022-08-11T06:51:57;9.65;;;5.10;;
55320;SDS011;41184;44.272;19.890;2022-08-11T06:54:25;7.13;;;5.38;;
55320;SDS011;41184;44.272;19.890;2022-08-11T06:56:52;7.30;;;4.30;;
55320;SDS011;41184;44.272;19.890;2022-08-11T06:59:37;5.57;;;4.38;;
55320;SDS011;41184;44.272;19.890;2022-08-11T07:02:26;9.60;;;4.88;;
55320;SDS011;41184;44.272;19.890;2022-08-11T07:05:00;5.63;;;3.97;;
55320;SDS011;41184;44.272;19.890;2022-08-11T07:13:28;5.50;;;3.90;;
55320;SDS011;41184;44.272;19.890;2022-08-11T07:16:15;9.52;;;3.80;;
55320;SDS011;41184;44.272;19.890;2022-08-11T07:18:43;7.03;;;4.30;;
55320;SDS011;41184;44.272;19.890;2022-08-11T07:21:30;5.85;;;4.38;;
55320;SDS011;41184;44.272;19.890;2022-08-11T07:24:16;8.25;;;4.38;;
55320;SDS011;41184;44.272;19.890;2022-08-11T07:27:03;4.28;;;3.58;;
55320;SDS011;41184;44.272;19.890;2022-08-11T07:29:49;5.32;;;3.53;;
55320;SDS011;41184;44.272;19.890;2022-08-11T07:32:21;9.13;;;3.65;;
55320;SDS011;41184;44.272;19.890;2022-08-11T07:34:49;4.70;;;3.97;;
55320;SDS011;41184;44.272;19.890;2022-08-11T07:37:18;4.93;;;3.40;;
55320;SDS011;41184;44.272;19.890;2022-08-11T07:39:45;7.43;;;3.83;;
55320;SDS011;41184;44.272;19.890;2022-08-11T07:42:13;7.32;;;4.13;;
55320;SDS011;41184;44.272;19.890;2022-08-11T07:44:40;11.48;;;5.57;;
55320;SDS011;41184;44.272;19.890;2022-08-11T07:47:25;7.95;;;6.28;;
55320;SDS011;41184;44.272;19.890;2022-08-11T07:50:10;10.15;;;5.00;;
55320;SDS011;41184;44.272;19.890;2022-08-11T07:52:56;6.15;;;3.80;;
55320;SDS011;41184;44.272;19.890;2022-08-11T07:55:23;4.63;;;3.70;;
55320;SDS011;41184;44.272;19.890;2022-08-11T07:57:49;7.03;;;4.50;;
55320;SDS011;41184;44.272;19.890;2022-08-11T08:00:53;6.88;;;4.53;;
55320;SDS011;41184;44.272;19.890;2022-08-11T08:03:38;9.10;;;4.85;;
55320;SDS011;41184;44.272;19.890;2022-08-11T08:06:24;5.63;;;3.92;;
55320;SDS011;41184;44.272;19.890;2022-08-11T08:09:09;7.95;;;4.78;;
55320;SDS011;41184;44.272;19.890;2022-08-11T08:11:55;4.55;;;3.88;;
55320;SDS011;41184;44.272;19.890;2022-08-11T08:14:40;6.05;;;3.88;;
55320;SDS011;41184;44.272;19.890;2022-08-11T08:17:25;4.55;;;3.58;;
55320;SDS011;41184;44.272;19.890;2022-08-11T08:20:11;5.80;;;3.97;;
55320;SDS011;41184;44.272;19.890;2022-08-11T08:22:38;8.90;;;4.53;;
55320;SDS011;41184;44.272;19.890;2022-08-11T08:25:04;5.82;;;4.20;;
55320;SDS011;41184;44.272;19.890;2022-08-11T08:27:31;4.95;;;3.33;;
55320;SDS011;41184;44.272;19.890;2022-08-11T08:29:57;6.18;;;4.30;;
55320;SDS011;41184;44.272;19.890;2022-08-11T08:32:43;3.15;;;2.80;;
55320;SDS011;41184;44.272;19.890;2022-08-11T08:35:10;6.93;;;3.60;;
55320;SDS011;41184;44.272;19.890;2022-08-11T08:37:36;5.50;;;4.05;;
55320;SDS011;41184;44.272;19.890;2022-08-11T08:40:04;7.05;;;4.63;;
55320;SDS011;41184;44.272;19.890;2022-08-11T08:42:32;11.55;;;4.00;;
55320;SDS011;41184;44.272;19.890;2022-08-11T08:45:04;5.97;;;3.90;;
55320;SDS011;41184;44.272;19.890;2022-08-11T08:47:34;6.18;;;3.05;;
55320;SDS011;41184;44.272;19.890;2022-08-11T08:50:04;3.90;;;3.00;;
55320;SDS011;41184;44.272;19.890;2022-08-11T08:52:33;9.77;;;5.05;;
55320;SDS011;41184;44.272;19.890;2022-08-11T08:55:03;7.13;;;4.72;;
55320;SDS011;41184;44.272;19.890;2022-08-11T08:57:31;9.85;;;3.25;;
55320;SDS011;41184;44.272;19.890;2022-08-11T08:59:58;4.68;;;3.03;;
55320;SDS011;41184;44.272;19.890;2022-08-11T09:02:25;3.88;;;3.03;;
55320;SDS011;41184;44.272;19.890;2022-08-11T09:04:51;4.30;;;3.35;;
55320;SDS011;41184;44.272;19.890;2022-08-11T09:07:19;5.35;;;3.33;;
55320;SDS011;41184;44.272;19.890;2022-08-11T09:09:48;5.47;;;3.97;;
55320;SDS011;41184;44.272;19.890;2022-08-11T09:12:14;6.70;;;3.10;;
55320;SDS011;41184;44.272;19.890;2022-08-11T09:14:43;4.18;;;3.33;;
55320;SDS011;41184;44.272;19.890;2022-08-11T09:22:32;4.75;;;3.72;;
55320;SDS011;41184;44.272;19.890;2022-08-11T09:25:18;3.63;;;2.97;;
55320;SDS011;41184;44.272;19.890;2022-08-11T09:28:03;4.88;;;3.42;;
55320;SDS011;41184;44.272;19.890;2022-08-11T09:30:31;4.60;;;3.38;;
55320;SDS011;41184;44.272;19.890;2022-08-11T09:32:58;4.80;;;3.03;;
55320;SDS011;41184;44.272;19.890;2022-08-11T09:35:26;4.82;;;4.10;;
55320;SDS011;41184;44.272;19.890;2022-08-11T09:37:56;8.30;;;3.30;;
55320;SDS011;41184;44.272;19.890;2022-08-11T09:40:41;4.10;;;3.40;;
55320;SDS011;41184;44.272;19.890;2022-08-11T09:43:09;6.00;;;5.05;;
55320;SDS011;41184;44.272;19.890;2022-08-11T09:45:54;5.05;;;3.13;;
55320;SDS011;41184;44.272;19.890;2022-08-11T09:48:22;4.18;;;3.17;;
55320;SDS011;41184;44.272;19.890;2022-08-11T09:50:50;5.70;;;3.75;;
55320;SDS011;41184;44.272;19.890;2022-08-11T09:53:17;4.68;;;3.20;;
55320;SDS011;41184;44.272;19.890;2022-08-11T09:55:43;5.90;;;3.30;;
55320;SDS011;41184;44.272;19.890;2022-08-11T09:58:13;3.83;;;2.72;;
55320;SDS011;41184;44.272;19.890;2022-08-11T10:00:43;8.77;;;4.65;;
55320;SDS011;41184;44.272;19.890;2022-08-11T10:05:38;6.50;;;3.50;;
55320;SDS011;41184;44.272;19.890;2022-08-11T10:08:27;6.53;;;3.03;;
55320;SDS011;41184;44.272;19.890;2022-08-11T10:10:55;4.05;;;3.50;;
55320;SDS011;41184;44.272;19.890;2022-08-11T10:13:22;4.93;;;3.08;;
55320;SDS011;41184;44.272;19.890;2022-08-11T10:15:54;7.68;;;3.50;;
55320;SDS011;41184;44.272;19.890;2022-08-11T10:18:29;4.47;;;3.15;;
55320;SDS011;41184;44.272;19.890;2022-08-11T10:21:14;6.63;;;3.67;;
55320;SDS011;41184;44.272;19.890;2022-08-11T10:23:42;4.88;;;3.30;;
55320;SDS011;41184;44.272;19.890;2022-08-11T10:26:28;6.38;;;4.00;;
55320;SDS011;41184;44.272;19.890;2022-08-11T10:29:13;9.43;;;3.92;;
55320;SDS011;41184;44.272;19.890;2022-08-11T10:31:58;5.30;;;3.10;;
55320;SDS011;41184;44.272;19.890;2022-08-11T10:34:43;5.22;;;3.40;;
55320;SDS011;41184;44.272;19.890;2022-08-11T10:37:10;4.85;;;3.25;;
55320;SDS011;41184;44.272;19.890;2022-08-11T10:39:38;4.13;;;3.20;;
55320;SDS011;41184;44.272;19.890;2022-08-11T10:42:04;7.68;;;3.08;;
55320;SDS011;41184;44.272;19.890;2022-08-11T10:44:50;3.63;;;2.97;;
55320;SDS011;41184;44.272;19.890;2022-08-11T10:47:16;4.45;;;3.67;;
55320;SDS011;41184;44.272;19.890;2022-08-11T10:52:50;4.00;;;2.85;;
55320;SDS011;41184;44.272;19.890;2022-08-11T10:55:35;6.50;;;3.20;;
55320;SDS011;41184;44.272;19.890;2022-08-11T10:58:21;4.53;;;3.75;;
55320;SDS011;41184;44.272;19.890;2022-08-11T11:01:05;6.85;;;3.53;;
55320;SDS011;41184;44.272;19.890;2022-08-11T11:03:32;8.05;;;3.30;;
55320;SDS011;41184;44.272;19.890;2022-08-11T11:08:41;5.43;;;3.83;;
55320;SDS011;41184;44.272;19.890;2022-08-11T11:11:19;3.80;;;3.22;;
55320;SDS011;41184;44.272;19.890;2022-08-11T11:13:46;10.52;;;2.95;;
55320;SDS011;41184;44.272;19.890;2022-08-11T11:16:34;5.45;;;3.40;;
55320;SDS011;41184;44.272;19.890;2022-08-11T11:19:21;4.18;;;3.17;;
55320;SDS011;41184;44.272;19.890;2022-08-11T11:21:50;4.72;;;3.38;;
55320;SDS011;41184;44.272;19.890;2022-08-11T11:29:42;4.72;;;2.58;;
55320;SDS011;41184;44.272;19.890;2022-08-11T11:37:23;4.93;;;4.20;;
55320;SDS011;41184;44.272;19.890;2022-08-11T11:39:49;5.07;;;3.35;;
55320;SDS011;41184;44.272;19.890;2022-08-11T11:42:16;5.25;;;3.35;;
55320;SDS011;41184;44.272;19.890;2022-08-11T11:44:43;3.47;;;2.85;;
55320;SDS011;41184;44.272;19.890;2022-08-11T11:47:10;5.25;;;3.75;;
55320;SDS011;41184;44.272;19.890;2022-08-11T11:49:37;5.65;;;2.80;;
55320;SDS011;41184;44.272;19.890;2022-08-11T11:52:04;3.03;;;2.72;;
55320;SDS011;41184;44.272;19.890;2022-08-11T11:54:31;5.20;;;3.30;;
55320;SDS011;41184;44.272;19.890;2022-08-11T11:57:00;3.97;;;3.17;;
55320;SDS011;41184;44.272;19.890;2022-08-11T11:59:46;4.35;;;3.03;;
55320;SDS011;41184;44.272;19.890;2022-08-11T12:02:42;4.97;;;3.40;;
55320;SDS011;41184;44.272;19.890;2022-08-11T12:05:09;7.10;;;3.17;;
55320;SDS011;41184;44.272;19.890;2022-08-11T12:07:36;13.85;;;5.55;;
55320;SDS011;41184;44.272;19.890;2022-08-11T12:10:21;4.47;;;3.47;;
55320;SDS011;41184;44.272;19.890;2022-08-11T12:12:48;4.85;;;3.78;;
55320;SDS011;41184;44.272;19.890;2022-08-11T12:15:33;4.72;;;3.42;;
55320;SDS011;41184;44.272;19.890;2022-08-11T12:17:59;6.50;;;2.53;;
55320;SDS011;41184;44.272;19.890;2022-08-11T12:20:26;4.00;;;2.55;;
55320;SDS011;41184;44.272;19.890;2022-08-11T12:22:52;4.93;;;3.30;;
55320;SDS011;41184;44.272;19.890;2022-08-11T12:25:38;6.43;;;3.53;;
55320;SDS011;41184;44.272;19.890;2022-08-11T12:28:23;5.93;;;3.78;;
55320;SDS011;41184;44.272;19.890;2022-08-11T12:30:52;5.75;;;3.95;;
55320;SDS011;41184;44.272;19.890;2022-08-11T12:33:18;7.68;;;4.10;;
55320;SDS011;41184;44.272;19.890;2022-08-11T12:35:45;4.32;;;3.70;;
55320;SDS011;41184;44.272;19.890;2022-08-11T12:38:18;5.97;;;3.70;;
55320;SDS011;41184;44.272;19.890;2022-08-11T12:40:45;6.55;;;3.40;;
55320;SDS011;41184;44.272;19.890;2022-08-11T12:43:31;4.47;;;3.30;;
55320;SDS011;41184;44.272;19.890;2022-08-11T12:46:18;5.18;;;3.15;;
55320;SDS011;41184;44.272;19.890;2022-08-11T12:48:46;7.63;;;3.08;;
55320;SDS011;41184;44.272;19.890;2022-08-11T12:51:32;3.65;;;3.00;;
55320;SDS011;41184;44.272;19.890;2022-08-11T12:54:22;5.72;;;2.60;;
55320;SDS011;41184;44.272;19.890;2022-08-11T12:56:54;5.53;;;3.13;;
55320;SDS011;41184;44.272;19.890;2022-08-11T12:59:40;4.10;;;3.63;;
55320;SDS011;41184;44.272;19.890;2022-08-11T13:02:24;5.65;;;2.97;;
55320;SDS011;41184;44.272;19.890;2022-08-11T13:05:14;7.28;;;5.75;;
55320;SDS011;41184;44.272;19.890;2022-08-11T13:07:41;3.47;;;3.00;;
55320;SDS011;41184;44.272;19.890;2022-08-11T13:10:08;6.82;;;3.45;;
55320;SDS011;41184;44.272;19.890;2022-08-11T13:12:34;5.57;;;3.00;;
55320;SDS011;41184;44.272;19.890;2022-08-11T13:15:15;7.00;;;3.30;;
55320;SDS011;41184;44.272;19.890;2022-08-11T13:17:42;7.03;;;3.38;;
55320;SDS011;41184;44.272;19.890;2022-08-11T13:20:09;6.10;;;3.67;;
55320;SDS011;41184;44.272;19.890;2022-08-11T13:22:37;6.43;;;3.05;;
55320;SDS011;41184;44.272;19.890;2022-08-11T13:25:04;7.53;;;4.03;;
55320;SDS011;41184;44.272;19.890;2022-08-11T13:27:30;4.18;;;3.75;;
55320;SDS011;41184;44.272;19.890;2022-08-11T13:29:56;7.15;;;3.38;;
55320;SDS011;41184;44.272;19.890;2022-08-11T13:32:43;5.70;;;3.03;;
55320;SDS011;41184;44.272;19.890;2022-08-11T13:35:11;6.47;;;4.30;;
55320;SDS011;41184;44.272;19.890;2022-08-11T13:37:39;6.93;;;3.50;;
55320;SDS011;41184;44.272;19.890;2022-08-11T13:40:06;6.78;;;3.58;;
55320;SDS011;41184;44.272;19.890;2022-08-11T13:42:32;4.85;;;2.60;;
55320;SDS011;41184;44.272;19.890;2022-08-11T13:44:59;7.82;;;5.10;;
55320;SDS011;41184;44.272;19.890;2022-08-11T13:47:25;5.45;;;3.55;;
55320;SDS011;41184;44.272;19.890;2022-08-11T13:49:52;5.28;;;3.45;;
55320;SDS011;41184;44.272;19.890;2022-08-11T13:52:18;4.45;;;3.13;;
55320;SDS011;41184;44.272;19.890;2022-08-11T13:54:45;4.88;;;3.60;;
55320;SDS011;41184;44.272;19.890;2022-08-11T13:57:12;12.45;;;11.15;;
55320;SDS011;41184;44.272;19.890;2022-08-11T13:59:40;5.45;;;4.18;;
55320;SDS011;41184;44.272;19.890;2022-08-11T14:02:07;4.43;;;3.80;;
55320;SDS011;41184;44.272;19.890;2022-08-11T14:04:39;8.18;;;4.40;;
55320;SDS011;41184;44.272;19.890;2022-08-11T14:07:08;4.32;;;3.22;;
55320;SDS011;41184;44.272;19.890;2022-08-11T14:09:35;7.28;;;3.75;;
55320;SDS011;41184;44.272;19.890;2022-08-11T14:12:02;4.55;;;3.17;;
55320;SDS011;41184;44.272;19.890;2022-08-11T14:14:58;5.32;;;3.55;;
55320;SDS011;41184;44.272;19.890;2022-08-11T14:17:25;4.35;;;3.95;;
55320;SDS011;41184;44.272;19.890;2022-08-11T14:19:53;4.18;;;3.53;;
55320;SDS011;41184;44.272;19.890;2022-08-11T14:22:19;5.63;;;3.28;;
55320;SDS011;41184;44.272;19.890;2022-08-11T14:24:46;8.63;;;3.63;;
55320;SDS011;41184;44.272;19.890;2022-08-11T14:27:16;6.43;;;4.03;;
55320;SDS011;41184;44.272;19.890;2022-08-11T14:29:42;5.40;;;3.40;;
55320;SDS011;41184;44.272;19.890;2022-08-11T14:32:10;7.15;;;3.30;;
55320;SDS011;41184;44.272;19.890;2022-08-11T14:34:38;4.75;;;3.33;;
55320;SDS011;41184;44.272;19.890;2022-08-11T14:37:12;3.95;;;3.17;;
55320;SDS011;41184;44.272;19.890;2022-08-11T14:39:43;5.47;;;3.50;;
55320;SDS011;41184;44.272;19.890;2022-08-11T14:42:11;7.25;;;4.45;;
55320;SDS011;41184;44.272;19.890;2022-08-11T14:44:57;7.47;;;4.35;;
55320;SDS011;41184;44.272;19.890;2022-08-11T14:47:31;7.05;;;4.05;;
55320;SDS011;41184;44.272;19.890;2022-08-11T14:49:58;6.07;;;3.63;;
55320;SDS011;41184;44.272;19.890;2022-08-11T14:52:26;7.00;;;4.30;;
55320;SDS011;41184;44.272;19.890;2022-08-11T14:54:52;5.38;;;3.50;;
55320;SDS011;41184;44.272;19.890;2022-08-11T14:57:38;7.72;;;4.20;;
55320;SDS011;41184;44.272;19.890;2022-08-11T15:00:06;4.93;;;4.03;;
55320;SDS011;41184;44.272;19.890;2022-08-11T15:02:37;6.95;;;3.67;;
55320;SDS011;41184;44.272;19.890;2022-08-11T15:05:22;6.50;;;3.53;;
55320;SDS011;41184;44.272;19.890;2022-08-11T15:07:49;7.47;;;4.95;;
55320;SDS011;41184;44.272;19.890;2022-08-11T15:10:16;6.97;;;3.90;;
55320;SDS011;41184;44.272;19.890;2022-08-11T15:12:43;6.72;;;3.47;;
55320;SDS011;41184;44.272;19.890;2022-08-11T15:15:10;6.57;;;5.97;;
55320;SDS011;41184;44.272;19.890;2022-08-11T15:17:56;4.45;;;3.75;;
55320;SDS011;41184;44.272;19.890;2022-08-11T15:20:24;3.78;;;3.33;;
55320;SDS011;41184;44.272;19.890;2022-08-11T15:23:09;5.03;;;3.67;;
55320;SDS011;41184;44.272;19.890;2022-08-11T15:25:55;4.85;;;4.07;;
55320;SDS011;41184;44.272;19.890;2022-08-11T15:28:22;6.65;;;3.65;;
55320;SDS011;41184;44.272;19.890;2022-08-11T15:31:08;5.10;;;3.50;;
55320;SDS011;41184;44.272;19.890;2022-08-11T15:33:54;4.18;;;3.65;;
55320;SDS011;41184;44.272;19.890;2022-08-11T15:36:46;5.30;;;3.85;;
55320;SDS011;41184;44.272;19.890;2022-08-11T15:39:35;6.28;;;3.50;;
55320;SDS011;41184;44.272;19.890;2022-08-11T15:42:23;6.47;;;3.42;;
55320;SDS011;41184;44.272;19.890;2022-08-11T15:45:07;7.38;;;3.67;;
55320;SDS011;41184;44.272;19.890;2022-08-11T15:47:58;7.65;;;3.58;;
55320;SDS011;41184;44.272;19.890;2022-08-11T15:50:25;5.20;;;3.50;;
55320;SDS011;41184;44.272;19.890;2022-08-11T15:52:58;4.25;;;3.15;;
55320;SDS011;41184;44.272;19.890;2022-08-11T15:55:24;5.57;;;4.00;;
55320;SDS011;41184;44.272;19.890;2022-08-11T15:57:52;7.85;;;3.20;;
55320;SDS011;41184;44.272;19.890;2022-08-11T16:00:45;4.15;;;3.60;;
55320;SDS011;41184;44.272;19.890;2022-08-11T16:03:34;5.40;;;3.90;;
55320;SDS011;41184;44.272;19.890;2022-08-11T16:06:22;3.92;;;3.35;;
55320;SDS011;41184;44.272;19.890;2022-08-11T16:08:50;5.25;;;4.70;;
55320;SDS011;41184;44.272;19.890;2022-08-11T16:11:20;4.80;;;3.67;;
55320;SDS011;41184;44.272;19.890;2022-08-11T16:13:47;4.60;;;3.85;;
55320;SDS011;41184;44.272;19.890;2022-08-11T16:16:32;5.80;;;4.10;;
55320;SDS011;41184;44.272;19.890;2022-08-11T16:18:58;8.38;;;3.42;;
55320;SDS011;41184;44.272;19.890;2022-08-11T16:21:29;9.00;;;3.40;;
55320;SDS011;41184;44.272;19.890;2022-08-11T16:23:57;5.55;;;3.60;;
55320;SDS011;41184;44.272;19.890;2022-08-11T16:26:24;5.93;;;3.78;;
55320;SDS011;41184;44.272;19.890;2022-08-11T16:28:52;7.63;;;4.00;;
55320;SDS011;41184;44.272;19.890;2022-08-11T16:31:23;5.55;;;3.80;;
55320;SDS011;41184;44.272;19.890;2022-08-11T16:33:50;9.73;;;4.82;;
55320;SDS011;41184;44.272;19.890;2022-08-11T16:36:17;11.13;;;5.88;;
55320;SDS011;41184;44.272;19.890;2022-08-11T16:39:03;7.80;;;4.43;;
55320;SDS011;41184;44.272;19.890;2022-08-11T16:41:30;6.93;;;4.00;;
55320;SDS011;41184;44.272;19.890;2022-08-11T16:44:16;6.07;;;3.40;;
55320;SDS011;41184;44.272;19.890;2022-08-11T16:47:01;4.93;;;3.60;;
55320;SDS011;41184;44.272;19.890;2022-08-11T16:49:34;8.30;;;3.50;;
55320;SDS011;41184;44.272;19.890;2022-08-11T16:52:01;6.40;;;3.70;;
55320;SDS011;41184;44.272;19.890;2022-08-11T16:54:32;12.45;;;4.82;;
55320;SDS011;41184;44.272;19.890;2022-08-11T16:56:59;12.53;;;5.20;;
55320;SDS011;41184;44.272;19.890;2022-08-11T16:59:45;8.52;;;4.55;;
55320;SDS011;41184;44.272;19.890;2022-08-11T17:02:17;7.53;;;4.95;;
55320;SDS011;41184;44.272;19.890;2022-08-11T17:05:13;8.30;;;4.10;;
55320;SDS011;41184;44.272;19.890;2022-08-11T17:07:59;11.52;;;4.97;;
55320;SDS011;41184;44.272;19.890;2022-08-11T17:10:47;8.27;;;4.45;;
55320;SDS011;41184;44.272;19.890;2022-08-11T17:13:39;8.38;;;4.40;;
55320;SDS011;41184;44.272;19.890;2022-08-11T17:16:07;11.10;;;4.43;;
55320;SDS011;41184;44.272;19.890;2022-08-11T17:19:19;11.00;;;5.33;;
55320;SDS011;41184;44.272;19.890;2022-08-11T17:21:32;9.10;;;4.55;;
55320;SDS011;41184;44.272;19.890;2022-08-11T17:23:59;8.63;;;5.22;;
55320;SDS011;41184;44.272;19.890;2022-08-11T17:26:44;15.07;;;5.38;;
55320;SDS011;41184;44.272;19.890;2022-08-11T17:29:24;8.10;;;4.72;;
55320;SDS011;41184;44.272;19.890;2022-08-11T17:31:52;8.48;;;5.22;;
55320;SDS011;41184;44.272;19.890;2022-08-11T17:34:38;9.77;;;5.78;;
55320;SDS011;41184;44.272;19.890;2022-08-11T17:37:23;8.73;;;5.57;;
55320;SDS011;41184;44.272;19.890;2022-08-11T17:39:50;10.38;;;5.55;;
55320;SDS011;41184;44.272;19.890;2022-08-11T17:42:16;9.82;;;5.80;;
55320;SDS011;41184;44.272;19.890;2022-08-11T17:45:01;8.38;;;5.82;;
55320;SDS011;41184;44.272;19.890;2022-08-11T17:47:46;9.07;;;5.20;;
55320;SDS011;41184;44.272;19.890;2022-08-11T17:50:32;7.65;;;5.80;;
55320;SDS011;41184;44.272;19.890;2022-08-11T17:52:58;16.00;;;7.50;;
55320;SDS011;41184;44.272;19.890;2022-08-11T17:55:44;9.40;;;5.82;;
55320;SDS011;41184;44.272;19.890;2022-08-11T17:58:29;8.68;;;5.85;;
55320;SDS011;41184;44.272;19.890;2022-08-11T18:01:14;11.20;;;5.20;;
55320;SDS011;41184;44.272;19.890;2022-08-11T18:03:41;7.60;;;5.22;;
55320;SDS011;41184;44.272;19.890;2022-08-11T18:06:09;10.10;;;5.28;;
55320;SDS011;41184;44.272;19.890;2022-08-11T18:08:37;8.63;;;6.05;;
55320;SDS011;41184;44.272;19.890;2022-08-11T18:11:23;8.48;;;5.90;;
55320;SDS011;41184;44.272;19.890;2022-08-11T18:14:08;8.15;;;5.30;;
55320;SDS011;41184;44.272;19.890;2022-08-11T18:16:53;15.52;;;6.45;;
55320;SDS011;41184;44.272;19.890;2022-08-11T18:19:38;8.57;;;5.85;;
55320;SDS011;41184;44.272;19.890;2022-08-11T18:22:23;10.25;;;6.63;;
55320;SDS011;41184;44.272;19.890;2022-08-11T18:25:14;8.57;;;7.13;;
55320;SDS011;41184;44.272;19.890;2022-08-11T18:28:00;16.95;;;7.35;;
55320;SDS011;41184;44.272;19.890;2022-08-11T18:30:45;11.85;;;8.13;;
55320;SDS011;41184;44.272;19.890;2022-08-11T18:37:12;17.52;;;5.93;;
55320;SDS011;41184;44.272;19.890;2022-08-11T18:39:52;11.07;;;6.20;;
55320;SDS011;41184;44.272;19.890;2022-08-11T18:42:39;13.23;;;6.20;;
55320;SDS011;41184;44.272;19.890;2022-08-11T18:45:25;11.82;;;6.43;;
55320;SDS011;41184;44.272;19.890;2022-08-11T18:48:10;14.23;;;7.32;;
55320;SDS011;41184;44.272;19.890;2022-08-11T18:50:55;15.55;;;6.45;;
55320;SDS011;41184;44.272;19.890;2022-08-11T18:53:45;10.45;;;6.05;;
55320;SDS011;41184;44.272;19.890;2022-08-11T18:56:31;12.35;;;6.05;;
55320;SDS011;41184;44.272;19.890;2022-08-11T18:59:17;13.23;;;7.07;;
55320;SDS011;41184;44.272;19.890;2022-08-11T19:02:02;8.63;;;5.50;;
55320;SDS011;41184;44.272;19.890;2022-08-11T19:04:47;10.43;;;5.43;;
55320;SDS011;41184;44.272;19.890;2022-08-11T19:07:33;9.63;;;7.30;;
55320;SDS011;41184;44.272;19.890;2022-08-11T19:10:18;10.23;;;5.60;;
55320;SDS011;41184;44.272;19.890;2022-08-11T19:13:05;7.82;;;4.85;;
55320;SDS011;41184;44.272;19.890;2022-08-11T19:15:51;7.55;;;5.22;;
55320;SDS011;41184;44.272;19.890;2022-08-11T19:18:37;8.73;;;5.35;;